sensor_id;sensor_type;location;lat;lon;timestamp;P1;durP1;ratioP1;P2;durP2;ratioP2
54235;SDS011;40151;43.606;1.472;2023-02-18T00:01:40;19.42;;;11.73;;
54235;SDS011;40151;43.606;1.472;2023-02-18T00:04:05;15.68;;;10.85;;
54235;SDS011;40151;43.606;1.472;2023-02-18T00:06:32;16.55;;;11.80;;
54235;SDS011;40151;43.606;1.472;2023-02-18T00:08:58;16.77;;;11.50;;
54235;SDS011;40151;43.606;1.472;2023-02-18T00:11:26;15.50;;;10.80;;
54235;SDS011;40151;43.606;1.472;2023-02-18T00:13:54;15.10;;;11.52;;
54235;SDS011;40151;43.606;1.472;2023-02-18T00:16:21;17.15;;;11.32;;
54235;SDS011;40151;43.606;1.472;2023-02-18T00:18:48;15.77;;;11.75;;
54235;SDS011;40151;43.606;1.472;2023-02-18T00:21:14;15.13;;;10.80;;
54235;SDS011;40151;43.606;1.472;2023-02-18T00:23:39;15.48;;;11.18;;
54235;SDS011;40151;43.606;1.472;2023-02-18T00:26:06;18.17;;;11.80;;
54235;SDS011;40151;43.606;1.472;2023-02-18T00:28:33;17.60;;;11.93;;
54235;SDS011;40151;43.606;1.472;2023-02-18T00:31:04;16.67;;;11.23;;
54235;SDS011;40151;43.606;1.472;2023-02-18T00:33:31;18.40;;;11.60;;
54235;SDS011;40151;43.606;1.472;2023-02-18T00:36:03;16.33;;;11.38;;
54235;SDS011;40151;43.606;1.472;2023-02-18T00:38:30;16.90;;;10.93;;
54235;SDS011;40151;43.606;1.472;2023-02-18T00:40:56;17.10;;;11.45;;
54235;SDS011;40151;43.606;1.472;2023-02-18T00:43:22;18.20;;;10.98;;
54235;SDS011;40151;43.606;1.472;2023-02-18T00:45:47;17.92;;;11.30;;
54235;SDS011;40151;43.606;1.472;2023-02-18T00:48:13;17.05;;;11.35;;
54235;SDS011;40151;43.606;1.472;2023-02-18T00:50:38;15.15;;;10.82;;
54235;SDS011;40151;43.606;1.472;2023-02-18T00:53:04;16.80;;;11.25;;
54235;SDS011;40151;43.606;1.472;2023-02-18T00:55:29;16.38;;;11.10;;
54235;SDS011;40151;43.606;1.472;2023-02-18T00:57:54;15.85;;;11.70;;
54235;SDS011;40151;43.606;1.472;2023-02-18T01:00:20;17.05;;;12.15;;
54235;SDS011;40151;43.606;1.472;2023-02-18T01:02:45;16.23;;;10.65;;
54235;SDS011;40151;43.606;1.472;2023-02-18T01:05:11;15.60;;;10.93;;
54235;SDS011;40151;43.606;1.472;2023-02-18T01:07:36;18.02;;;10.63;;
54235;SDS011;40151;43.606;1.472;2023-02-18T01:10:02;16.23;;;10.80;;
54235;SDS011;40151;43.606;1.472;2023-02-18T01:12:28;15.18;;;11.43;;
54235;SDS011;40151;43.606;1.472;2023-02-18T01:14:54;14.35;;;10.35;;
54235;SDS011;40151;43.606;1.472;2023-02-18T01:17:19;18.27;;;11.95;;
54235;SDS011;40151;43.606;1.472;2023-02-18T01:19:45;15.65;;;11.48;;
54235;SDS011;40151;43.606;1.472;2023-02-18T01:22:10;17.27;;;11.82;;
54235;SDS011;40151;43.606;1.472;2023-02-18T01:24:35;13.98;;;10.55;;
54235;SDS011;40151;43.606;1.472;2023-02-18T01:27:02;16.55;;;11.00;;
54235;SDS011;40151;43.606;1.472;2023-02-18T01:29:28;14.85;;;10.65;;
54235;SDS011;40151;43.606;1.472;2023-02-18T01:31:53;16.00;;;11.10;;
54235;SDS011;40151;43.606;1.472;2023-02-18T01:34:19;16.27;;;10.55;;
54235;SDS011;40151;43.606;1.472;2023-02-18T01:36:44;14.70;;;10.45;;
54235;SDS011;40151;43.606;1.472;2023-02-18T01:39:10;15.65;;;10.95;;
54235;SDS011;40151;43.606;1.472;2023-02-18T01:41:35;15.98;;;10.70;;
54235;SDS011;40151;43.606;1.472;2023-02-18T01:46:39;15.35;;;10.85;;
54235;SDS011;40151;43.606;1.472;2023-02-18T01:49:05;15.98;;;10.85;;
54235;SDS011;40151;43.606;1.472;2023-02-18T01:51:36;14.63;;;10.77;;
54235;SDS011;40151;43.606;1.472;2023-02-18T01:54:08;13.25;;;10.10;;
54235;SDS011;40151;43.606;1.472;2023-02-18T01:59:10;13.90;;;9.93;;
54235;SDS011;40151;43.606;1.472;2023-02-18T02:01:39;15.65;;;11.02;;
54235;SDS011;40151;43.606;1.472;2023-02-18T02:04:07;14.68;;;10.02;;
54235;SDS011;40151;43.606;1.472;2023-02-18T02:06:33;14.07;;;9.73;;
54235;SDS011;40151;43.606;1.472;2023-02-18T02:08:59;15.65;;;11.13;;
54235;SDS011;40151;43.606;1.472;2023-02-18T02:14:32;13.65;;;10.52;;
54235;SDS011;40151;43.606;1.472;2023-02-18T02:17:07;14.98;;;10.77;;
54235;SDS011;40151;43.606;1.472;2023-02-18T02:35:59;15.87;;;10.73;;
54235;SDS011;40151;43.606;1.472;2023-02-18T02:38:37;13.23;;;9.95;;
54235;SDS011;40151;43.606;1.472;2023-02-18T02:44:35;12.85;;;10.10;;
54235;SDS011;40151;43.606;1.472;2023-02-18T02:47:49;12.98;;;9.95;;
54235;SDS011;40151;43.606;1.472;2023-02-18T02:50:16;12.52;;;9.70;;
54235;SDS011;40151;43.606;1.472;2023-02-18T02:53:05;15.27;;;10.32;;
54235;SDS011;40151;43.606;1.472;2023-02-18T02:55:39;14.23;;;9.88;;
54235;SDS011;40151;43.606;1.472;2023-02-18T02:58:05;12.65;;;9.88;;
54235;SDS011;40151;43.606;1.472;2023-02-18T03:03:13;12.48;;;9.52;;
54235;SDS011;40151;43.606;1.472;2023-02-18T03:08:15;13.32;;;10.02;;
54235;SDS011;40151;43.606;1.472;2023-02-18T03:14:29;12.15;;;9.52;;
54235;SDS011;40151;43.606;1.472;2023-02-18T03:16:35;14.40;;;10.00;;
54235;SDS011;40151;43.606;1.472;2023-02-18T03:19:21;13.10;;;9.75;;
54235;SDS011;40151;43.606;1.472;2023-02-18T03:21:55;13.97;;;9.53;;
54235;SDS011;40151;43.606;1.472;2023-02-18T03:24:43;13.48;;;9.68;;
54235;SDS011;40151;43.606;1.472;2023-02-18T03:27:15;11.90;;;9.43;;
54235;SDS011;40151;43.606;1.472;2023-02-18T03:29:46;13.30;;;9.90;;
54235;SDS011;40151;43.606;1.472;2023-02-18T03:32:21;13.32;;;9.55;;
54235;SDS011;40151;43.606;1.472;2023-02-18T03:34:51;11.35;;;8.70;;
54235;SDS011;40151;43.606;1.472;2023-02-18T03:37:22;13.88;;;9.90;;
54235;SDS011;40151;43.606;1.472;2023-02-18T03:39:48;13.80;;;10.00;;
54235;SDS011;40151;43.606;1.472;2023-02-18T03:42:19;14.18;;;9.75;;
54235;SDS011;40151;43.606;1.472;2023-02-18T03:44:50;11.57;;;9.13;;
54235;SDS011;40151;43.606;1.472;2023-02-18T03:47:15;12.77;;;9.05;;
54235;SDS011;40151;43.606;1.472;2023-02-18T03:49:41;11.10;;;8.93;;
54235;SDS011;40151;43.606;1.472;2023-02-18T03:52:06;12.88;;;10.00;;
54235;SDS011;40151;43.606;1.472;2023-02-18T03:54:32;11.85;;;9.30;;
54235;SDS011;40151;43.606;1.472;2023-02-18T03:56:57;11.13;;;8.75;;
54235;SDS011;40151;43.606;1.472;2023-02-18T03:59:23;12.15;;;9.10;;
54235;SDS011;40151;43.606;1.472;2023-02-18T04:01:48;13.40;;;10.02;;
54235;SDS011;40151;43.606;1.472;2023-02-18T04:04:13;12.63;;;8.90;;
54235;SDS011;40151;43.606;1.472;2023-02-18T04:06:39;12.80;;;9.90;;
54235;SDS011;40151;43.606;1.472;2023-02-18T04:09:04;13.02;;;9.45;;
54235;SDS011;40151;43.606;1.472;2023-02-18T04:11:33;10.68;;;8.30;;
54235;SDS011;40151;43.606;1.472;2023-02-18T04:14:02;11.43;;;8.75;;
54235;SDS011;40151;43.606;1.472;2023-02-18T04:16:28;13.70;;;9.40;;
54235;SDS011;40151;43.606;1.472;2023-02-18T04:18:54;12.50;;;9.23;;
54235;SDS011;40151;43.606;1.472;2023-02-18T04:21:19;12.05;;;9.25;;
54235;SDS011;40151;43.606;1.472;2023-02-18T04:23:44;12.20;;;8.77;;
54235;SDS011;40151;43.606;1.472;2023-02-18T04:26:10;12.30;;;8.95;;
54235;SDS011;40151;43.606;1.472;2023-02-18T04:28:35;11.82;;;9.45;;
54235;SDS011;40151;43.606;1.472;2023-02-18T04:31:01;12.07;;;9.07;;
54235;SDS011;40151;43.606;1.472;2023-02-18T04:33:26;12.43;;;8.95;;
54235;SDS011;40151;43.606;1.472;2023-02-18T04:35:51;11.07;;;8.88;;
54235;SDS011;40151;43.606;1.472;2023-02-18T04:38:17;13.23;;;9.15;;
54235;SDS011;40151;43.606;1.472;2023-02-18T04:40:42;13.52;;;9.82;;
54235;SDS011;40151;43.606;1.472;2023-02-18T04:43:08;11.63;;;9.27;;
54235;SDS011;40151;43.606;1.472;2023-02-18T04:45:33;10.70;;;8.40;;
54235;SDS011;40151;43.606;1.472;2023-02-18T04:47:58;12.27;;;8.90;;
54235;SDS011;40151;43.606;1.472;2023-02-18T04:50:24;11.40;;;8.70;;
54235;SDS011;40151;43.606;1.472;2023-02-18T04:52:49;11.50;;;8.55;;
54235;SDS011;40151;43.606;1.472;2023-02-18T04:55:15;12.38;;;8.90;;
54235;SDS011;40151;43.606;1.472;2023-02-18T04:57:40;13.02;;;9.02;;
54235;SDS011;40151;43.606;1.472;2023-02-18T05:00:07;13.43;;;9.50;;
54235;SDS011;40151;43.606;1.472;2023-02-18T05:02:35;10.88;;;8.68;;
54235;SDS011;40151;43.606;1.472;2023-02-18T05:05:00;11.10;;;8.65;;
54235;SDS011;40151;43.606;1.472;2023-02-18T05:07:26;11.05;;;8.13;;
54235;SDS011;40151;43.606;1.472;2023-02-18T05:09:52;11.68;;;8.70;;
54235;SDS011;40151;43.606;1.472;2023-02-18T05:12:18;11.63;;;9.00;;
54235;SDS011;40151;43.606;1.472;2023-02-18T05:14:43;11.90;;;8.55;;
54235;SDS011;40151;43.606;1.472;2023-02-18T05:17:09;13.43;;;8.60;;
54235;SDS011;40151;43.606;1.472;2023-02-18T05:19:34;12.43;;;9.00;;
54235;SDS011;40151;43.606;1.472;2023-02-18T05:21:59;11.38;;;8.80;;
54235;SDS011;40151;43.606;1.472;2023-02-18T05:24:25;11.57;;;8.02;;
54235;SDS011;40151;43.606;1.472;2023-02-18T05:26:50;10.13;;;8.25;;
54235;SDS011;40151;43.606;1.472;2023-02-18T05:29:16;11.80;;;8.82;;
54235;SDS011;40151;43.606;1.472;2023-02-18T05:31:41;10.95;;;8.50;;
54235;SDS011;40151;43.606;1.472;2023-02-18T05:34:06;9.85;;;8.10;;
54235;SDS011;40151;43.606;1.472;2023-02-18T05:36:32;11.50;;;8.80;;
54235;SDS011;40151;43.606;1.472;2023-02-18T05:38:58;10.48;;;8.50;;
54235;SDS011;40151;43.606;1.472;2023-02-18T05:41:23;10.27;;;7.97;;
54235;SDS011;40151;43.606;1.472;2023-02-18T05:43:48;11.95;;;8.77;;
54235;SDS011;40151;43.606;1.472;2023-02-18T05:46:33;11.13;;;8.73;;
54235;SDS011;40151;43.606;1.472;2023-02-18T05:48:58;12.38;;;9.63;;
54235;SDS011;40151;43.606;1.472;2023-02-18T05:51:24;11.15;;;7.78;;
54235;SDS011;40151;43.606;1.472;2023-02-18T05:53:49;10.88;;;8.00;;
54235;SDS011;40151;43.606;1.472;2023-02-18T05:56:14;11.95;;;9.02;;
54235;SDS011;40151;43.606;1.472;2023-02-18T05:58:40;11.38;;;8.25;;
54235;SDS011;40151;43.606;1.472;2023-02-18T06:01:05;11.55;;;8.75;;
54235;SDS011;40151;43.606;1.472;2023-02-18T06:03:31;12.25;;;8.95;;
54235;SDS011;40151;43.606;1.472;2023-02-18T06:05:56;10.32;;;8.35;;
54235;SDS011;40151;43.606;1.472;2023-02-18T06:08:21;11.45;;;8.20;;
54235;SDS011;40151;43.606;1.472;2023-02-18T06:10:47;11.13;;;8.25;;
54235;SDS011;40151;43.606;1.472;2023-02-18T06:13:12;11.48;;;8.85;;
54235;SDS011;40151;43.606;1.472;2023-02-18T06:15:38;9.50;;;7.65;;
54235;SDS011;40151;43.606;1.472;2023-02-18T06:18:04;11.65;;;8.27;;
54235;SDS011;40151;43.606;1.472;2023-02-18T06:20:30;10.27;;;7.93;;
54235;SDS011;40151;43.606;1.472;2023-02-18T06:22:56;10.27;;;8.00;;
54235;SDS011;40151;43.606;1.472;2023-02-18T06:25:21;10.05;;;7.75;;
54235;SDS011;40151;43.606;1.472;2023-02-18T06:27:47;10.65;;;7.82;;
54235;SDS011;40151;43.606;1.472;2023-02-18T06:30:12;11.27;;;8.27;;
54235;SDS011;40151;43.606;1.472;2023-02-18T06:32:38;10.77;;;7.68;;
54235;SDS011;40151;43.606;1.472;2023-02-18T06:35:04;10.73;;;8.05;;
54235;SDS011;40151;43.606;1.472;2023-02-18T06:37:29;10.73;;;7.88;;
54235;SDS011;40151;43.606;1.472;2023-02-18T06:39:55;10.77;;;8.25;;
54235;SDS011;40151;43.606;1.472;2023-02-18T06:42:21;9.75;;;8.18;;
54235;SDS011;40151;43.606;1.472;2023-02-18T06:44:46;10.15;;;7.72;;
54235;SDS011;40151;43.606;1.472;2023-02-18T06:47:12;10.90;;;8.27;;
54235;SDS011;40151;43.606;1.472;2023-02-18T06:49:37;11.80;;;8.35;;
54235;SDS011;40151;43.606;1.472;2023-02-18T06:52:03;10.48;;;7.47;;
54235;SDS011;40151;43.606;1.472;2023-02-18T06:54:29;11.43;;;8.25;;
54235;SDS011;40151;43.606;1.472;2023-02-18T06:56:55;10.80;;;7.80;;
54235;SDS011;40151;43.606;1.472;2023-02-18T06:59:20;10.13;;;7.78;;
54235;SDS011;40151;43.606;1.472;2023-02-18T07:01:46;10.00;;;7.97;;
54235;SDS011;40151;43.606;1.472;2023-02-18T07:04:11;10.90;;;8.18;;
54235;SDS011;40151;43.606;1.472;2023-02-18T07:06:37;11.25;;;8.45;;
54235;SDS011;40151;43.606;1.472;2023-02-18T07:09:02;11.23;;;8.20;;
54235;SDS011;40151;43.606;1.472;2023-02-18T07:11:28;10.98;;;7.78;;
54235;SDS011;40151;43.606;1.472;2023-02-18T07:13:54;11.07;;;8.15;;
54235;SDS011;40151;43.606;1.472;2023-02-18T07:16:19;10.15;;;8.18;;
54235;SDS011;40151;43.606;1.472;2023-02-18T07:18:45;11.90;;;7.93;;
54235;SDS011;40151;43.606;1.472;2023-02-18T07:21:10;11.52;;;7.70;;
54235;SDS011;40151;43.606;1.472;2023-02-18T07:23:36;8.88;;;7.18;;
54235;SDS011;40151;43.606;1.472;2023-02-18T07:26:05;9.80;;;8.18;;
54235;SDS011;40151;43.606;1.472;2023-02-18T07:28:32;11.70;;;8.50;;
54235;SDS011;40151;43.606;1.472;2023-02-18T07:30:58;10.02;;;7.85;;
54235;SDS011;40151;43.606;1.472;2023-02-18T07:33:23;9.25;;;7.57;;
54235;SDS011;40151;43.606;1.472;2023-02-18T07:35:55;11.75;;;8.65;;
54235;SDS011;40151;43.606;1.472;2023-02-18T07:38:22;9.73;;;8.23;;
54235;SDS011;40151;43.606;1.472;2023-02-18T07:40:49;11.75;;;8.73;;
54235;SDS011;40151;43.606;1.472;2023-02-18T07:43:14;12.15;;;7.78;;
54235;SDS011;40151;43.606;1.472;2023-02-18T07:45:40;9.93;;;7.82;;
54235;SDS011;40151;43.606;1.472;2023-02-18T07:48:05;10.70;;;8.05;;
54235;SDS011;40151;43.606;1.472;2023-02-18T07:50:31;10.02;;;8.30;;
54235;SDS011;40151;43.606;1.472;2023-02-18T07:53:00;10.70;;;7.97;;
54235;SDS011;40151;43.606;1.472;2023-02-18T07:55:26;10.50;;;8.52;;
54235;SDS011;40151;43.606;1.472;2023-02-18T07:58:13;10.02;;;8.20;;
54235;SDS011;40151;43.606;1.472;2023-02-18T08:00:39;12.02;;;8.32;;
54235;SDS011;40151;43.606;1.472;2023-02-18T08:03:05;11.02;;;8.35;;
54235;SDS011;40151;43.606;1.472;2023-02-18T08:05:30;10.82;;;7.85;;
54235;SDS011;40151;43.606;1.472;2023-02-18T08:07:56;10.70;;;7.97;;
54235;SDS011;40151;43.606;1.472;2023-02-18T08:10:21;11.18;;;8.30;;
54235;SDS011;40151;43.606;1.472;2023-02-18T08:12:47;10.10;;;8.52;;
54235;SDS011;40151;43.606;1.472;2023-02-18T08:15:12;10.23;;;7.90;;
54235;SDS011;40151;43.606;1.472;2023-02-18T08:17:38;9.48;;;7.53;;
54235;SDS011;40151;43.606;1.472;2023-02-18T08:20:03;12.35;;;8.82;;
54235;SDS011;40151;43.606;1.472;2023-02-18T08:22:29;9.40;;;7.78;;
54235;SDS011;40151;43.606;1.472;2023-02-18T08:24:55;9.40;;;8.00;;
54235;SDS011;40151;43.606;1.472;2023-02-18T08:27:21;9.65;;;8.07;;
54235;SDS011;40151;43.606;1.472;2023-02-18T08:29:47;10.48;;;8.27;;
54235;SDS011;40151;43.606;1.472;2023-02-18T08:32:13;12.18;;;8.93;;
54235;SDS011;40151;43.606;1.472;2023-02-18T08:34:38;12.82;;;8.73;;
54235;SDS011;40151;43.606;1.472;2023-02-18T08:37:03;10.30;;;8.63;;
54235;SDS011;40151;43.606;1.472;2023-02-18T08:39:35;10.38;;;8.48;;
54235;SDS011;40151;43.606;1.472;2023-02-18T08:42:02;10.25;;;8.13;;
54235;SDS011;40151;43.606;1.472;2023-02-18T08:44:28;11.55;;;8.43;;
54235;SDS011;40151;43.606;1.472;2023-02-18T08:46:53;10.90;;;8.48;;
54235;SDS011;40151;43.606;1.472;2023-02-18T08:49:19;11.82;;;8.88;;
54235;SDS011;40151;43.606;1.472;2023-02-18T08:51:47;10.95;;;8.57;;
54235;SDS011;40151;43.606;1.472;2023-02-18T08:54:13;12.70;;;8.88;;
54235;SDS011;40151;43.606;1.472;2023-02-18T08:56:38;11.77;;;8.85;;
54235;SDS011;40151;43.606;1.472;2023-02-18T08:59:04;11.93;;;8.93;;
54235;SDS011;40151;43.606;1.472;2023-02-18T09:01:29;11.02;;;8.65;;
54235;SDS011;40151;43.606;1.472;2023-02-18T09:03:57;11.32;;;8.95;;
54235;SDS011;40151;43.606;1.472;2023-02-18T09:06:23;12.68;;;8.80;;
54235;SDS011;40151;43.606;1.472;2023-02-18T09:08:48;11.15;;;8.60;;
54235;SDS011;40151;43.606;1.472;2023-02-18T09:11:14;11.77;;;9.05;;
54235;SDS011;40151;43.606;1.472;2023-02-18T09:13:40;12.50;;;8.23;;
54235;SDS011;40151;43.606;1.472;2023-02-18T09:16:06;11.20;;;8.18;;
54235;SDS011;40151;43.606;1.472;2023-02-18T09:18:35;12.27;;;8.40;;
54235;SDS011;40151;43.606;1.472;2023-02-18T09:21:01;10.50;;;8.18;;
54235;SDS011;40151;43.606;1.472;2023-02-18T09:23:28;13.55;;;8.45;;
54235;SDS011;40151;43.606;1.472;2023-02-18T09:25:56;12.00;;;8.73;;
54235;SDS011;40151;43.606;1.472;2023-02-18T09:28:22;12.98;;;9.32;;
54235;SDS011;40151;43.606;1.472;2023-02-18T09:30:49;9.60;;;7.95;;
54235;SDS011;40151;43.606;1.472;2023-02-18T09:33:14;11.52;;;8.90;;
54235;SDS011;40151;43.606;1.472;2023-02-18T09:35:41;10.57;;;8.27;;
54235;SDS011;40151;43.606;1.472;2023-02-18T09:38:11;10.73;;;8.50;;
54235;SDS011;40151;43.606;1.472;2023-02-18T09:40:38;12.73;;;9.40;;
54235;SDS011;40151;43.606;1.472;2023-02-18T09:43:21;11.13;;;8.63;;
54235;SDS011;40151;43.606;1.472;2023-02-18T09:45:51;12.85;;;8.75;;
54235;SDS011;40151;43.606;1.472;2023-02-18T09:48:19;11.20;;;8.70;;
54235;SDS011;40151;43.606;1.472;2023-02-18T09:50:50;12.18;;;9.40;;
54235;SDS011;40151;43.606;1.472;2023-02-18T09:53:16;12.40;;;9.30;;
54235;SDS011;40151;43.606;1.472;2023-02-18T09:55:42;12.70;;;8.82;;
54235;SDS011;40151;43.606;1.472;2023-02-18T10:00:41;10.98;;;8.68;;
54235;SDS011;40151;43.606;1.472;2023-02-18T10:03:19;12.32;;;9.02;;
54235;SDS011;40151;43.606;1.472;2023-02-18T10:06:05;10.68;;;8.60;;
54235;SDS011;40151;43.606;1.472;2023-02-18T10:08:36;10.15;;;8.13;;
54235;SDS011;40151;43.606;1.472;2023-02-18T10:11:05;12.27;;;8.98;;
54235;SDS011;40151;43.606;1.472;2023-02-18T10:13:37;13.57;;;9.25;;
54235;SDS011;40151;43.606;1.472;2023-02-18T10:16:05;14.20;;;9.63;;
54235;SDS011;40151;43.606;1.472;2023-02-18T10:18:41;11.68;;;9.05;;
54235;SDS011;40151;43.606;1.472;2023-02-18T10:21:11;12.23;;;8.68;;
54235;SDS011;40151;43.606;1.472;2023-02-18T10:23:42;11.15;;;9.02;;
54235;SDS011;40151;43.606;1.472;2023-02-18T10:26:15;11.15;;;9.32;;
54235;SDS011;40151;43.606;1.472;2023-02-18T10:28:43;11.95;;;9.38;;
54235;SDS011;40151;43.606;1.472;2023-02-18T10:31:11;11.98;;;9.18;;
54235;SDS011;40151;43.606;1.472;2023-02-18T10:36:26;13.15;;;9.48;;
54235;SDS011;40151;43.606;1.472;2023-02-18T10:44:57;14.48;;;9.20;;
54235;SDS011;40151;43.606;1.472;2023-02-18T10:50:33;15.57;;;11.43;;
54235;SDS011;40151;43.606;1.472;2023-02-18T10:53:07;19.88;;;12.38;;
54235;SDS011;40151;43.606;1.472;2023-02-18T10:55:44;16.05;;;10.82;;
54235;SDS011;40151;43.606;1.472;2023-02-18T11:00:50;16.98;;;11.68;;
54235;SDS011;40151;43.606;1.472;2023-02-18T11:03:20;15.02;;;10.90;;
54235;SDS011;40151;43.606;1.472;2023-02-18T11:05:56;18.92;;;11.52;;
54235;SDS011;40151;43.606;1.472;2023-02-18T11:08:24;17.67;;;11.93;;
54235;SDS011;40151;43.606;1.472;2023-02-18T11:10:52;20.48;;;12.27;;
54235;SDS011;40151;43.606;1.472;2023-02-18T11:13:26;20.23;;;12.10;;
54235;SDS011;40151;43.606;1.472;2023-02-18T11:18:28;17.47;;;12.17;;
54235;SDS011;40151;43.606;1.472;2023-02-18T11:20:58;18.00;;;12.90;;
54235;SDS011;40151;43.606;1.472;2023-02-18T11:23:25;16.77;;;12.10;;
54235;SDS011;40151;43.606;1.472;2023-02-18T11:25:58;16.85;;;12.35;;
54235;SDS011;40151;43.606;1.472;2023-02-18T11:28:29;17.25;;;12.13;;
54235;SDS011;40151;43.606;1.472;2023-02-18T11:31:02;17.20;;;12.48;;
54235;SDS011;40151;43.606;1.472;2023-02-18T11:36:26;16.80;;;12.35;;
54235;SDS011;40151;43.606;1.472;2023-02-18T11:38:55;17.55;;;11.77;;
54235;SDS011;40151;43.606;1.472;2023-02-18T11:44:18;19.52;;;12.45;;
54235;SDS011;40151;43.606;1.472;2023-02-18T11:47:00;14.85;;;12.05;;
54235;SDS011;40151;43.606;1.472;2023-02-18T11:49:29;18.33;;;12.60;;
54235;SDS011;40151;43.606;1.472;2023-02-18T11:52:03;18.05;;;13.13;;
54235;SDS011;40151;43.606;1.472;2023-02-18T11:54:42;21.25;;;13.65;;
54235;SDS011;40151;43.606;1.472;2023-02-18T11:57:22;19.73;;;13.75;;
54235;SDS011;40151;43.606;1.472;2023-02-18T11:59:50;17.20;;;12.63;;
54235;SDS011;40151;43.606;1.472;2023-02-18T12:02:29;18.73;;;13.65;;
54235;SDS011;40151;43.606;1.472;2023-02-18T12:10:29;17.08;;;12.52;;
54235;SDS011;40151;43.606;1.472;2023-02-18T12:15:32;17.83;;;12.45;;
54235;SDS011;40151;43.606;1.472;2023-02-18T12:20:48;19.08;;;11.85;;
54235;SDS011;40151;43.606;1.472;2023-02-18T12:26:00;14.82;;;11.02;;
54235;SDS011;40151;43.606;1.472;2023-02-18T12:28:49;12.80;;;10.57;;
54235;SDS011;40151;43.606;1.472;2023-02-18T12:31:30;17.45;;;11.32;;
54235;SDS011;40151;43.606;1.472;2023-02-18T13:11:53;14.20;;;9.70;;
54235;SDS011;40151;43.606;1.472;2023-02-18T13:14:36;16.25;;;10.50;;
54235;SDS011;40151;43.606;1.472;2023-02-18T13:17:14;13.30;;;9.38;;
54235;SDS011;40151;43.606;1.472;2023-02-18T13:19:46;11.95;;;9.40;;
54235;SDS011;40151;43.606;1.472;2023-02-18T13:22:15;12.75;;;9.52;;
54235;SDS011;40151;43.606;1.472;2023-02-18T13:24:44;11.27;;;8.35;;
54235;SDS011;40151;43.606;1.472;2023-02-18T13:27:19;11.68;;;8.75;;
54235;SDS011;40151;43.606;1.472;2023-02-18T13:29:56;11.80;;;8.43;;
54235;SDS011;40151;43.606;1.472;2023-02-18T13:33:03;11.93;;;8.77;;
54235;SDS011;40151;43.606;1.472;2023-02-18T13:35:53;11.07;;;8.32;;
54235;SDS011;40151;43.606;1.472;2023-02-18T13:39:02;11.32;;;8.35;;
54235;SDS011;40151;43.606;1.472;2023-02-18T13:41:22;10.70;;;8.02;;
54235;SDS011;40151;43.606;1.472;2023-02-18T13:43:50;9.88;;;7.63;;
54235;SDS011;40151;43.606;1.472;2023-02-18T13:46:19;10.63;;;7.78;;
54235;SDS011;40151;43.606;1.472;2023-02-18T13:48:50;12.82;;;8.00;;
54235;SDS011;40151;43.606;1.472;2023-02-18T13:51:17;11.27;;;7.57;;
54235;SDS011;40151;43.606;1.472;2023-02-18T13:53:53;9.82;;;8.18;;
54235;SDS011;40151;43.606;1.472;2023-02-18T13:56:42;9.05;;;6.95;;
54235;SDS011;40151;43.606;1.472;2023-02-18T13:59:15;10.43;;;7.50;;
54235;SDS011;40151;43.606;1.472;2023-02-18T14:01:48;9.30;;;7.93;;
54235;SDS011;40151;43.606;1.472;2023-02-18T14:10:03;11.00;;;7.45;;
54235;SDS011;40151;43.606;1.472;2023-02-18T14:12:43;10.57;;;7.72;;
54235;SDS011;40151;43.606;1.472;2023-02-18T14:23:10;11.53;;;7.43;;
54235;SDS011;40151;43.606;1.472;2023-02-18T14:25:54;12.18;;;6.93;;
54235;SDS011;40151;43.606;1.472;2023-02-18T14:31:03;15.88;;;7.55;;
54235;SDS011;40151;43.606;1.472;2023-02-18T14:36:55;11.32;;;7.60;;
54235;SDS011;40151;43.606;1.472;2023-02-18T14:42:05;12.70;;;7.47;;
54235;SDS011;40151;43.606;1.472;2023-02-18T14:44:41;12.80;;;7.55;;
54235;SDS011;40151;43.606;1.472;2023-02-18T14:49:58;11.15;;;6.80;;
54235;SDS011;40151;43.606;1.472;2023-02-18T14:54:55;11.25;;;6.78;;
54235;SDS011;40151;43.606;1.472;2023-02-18T15:02:50;8.77;;;6.07;;
54235;SDS011;40151;43.606;1.472;2023-02-18T15:05:21;9.52;;;5.95;;
54235;SDS011;40151;43.606;1.472;2023-02-18T15:13:00;8.85;;;5.60;;
54235;SDS011;40151;43.606;1.472;2023-02-18T15:15:28;10.10;;;6.10;;
54235;SDS011;40151;43.606;1.472;2023-02-18T15:17:54;11.98;;;6.60;;
54235;SDS011;40151;43.606;1.472;2023-02-18T15:20:20;9.88;;;5.57;;
54235;SDS011;40151;43.606;1.472;2023-02-18T15:22:47;10.45;;;5.78;;
54235;SDS011;40151;43.606;1.472;2023-02-18T15:25:12;9.23;;;6.18;;
54235;SDS011;40151;43.606;1.472;2023-02-18T15:27:40;10.30;;;6.43;;
54235;SDS011;40151;43.606;1.472;2023-02-18T15:30:25;8.48;;;5.70;;
54235;SDS011;40151;43.606;1.472;2023-02-18T15:32:54;8.02;;;6.00;;
54235;SDS011;40151;43.606;1.472;2023-02-18T15:35:22;6.95;;;5.40;;
54235;SDS011;40151;43.606;1.472;2023-02-18T15:37:54;10.80;;;6.35;;
54235;SDS011;40151;43.606;1.472;2023-02-18T15:40:21;8.15;;;5.38;;
54235;SDS011;40151;43.606;1.472;2023-02-18T15:42:50;10.00;;;6.15;;
54235;SDS011;40151;43.606;1.472;2023-02-18T15:45:18;8.38;;;5.60;;
54235;SDS011;40151;43.606;1.472;2023-02-18T15:47:47;8.77;;;5.70;;
54235;SDS011;40151;43.606;1.472;2023-02-18T15:50:21;8.77;;;5.68;;
54235;SDS011;40151;43.606;1.472;2023-02-18T15:52:49;9.52;;;5.78;;
54235;SDS011;40151;43.606;1.472;2023-02-18T15:57:49;9.85;;;5.40;;
54235;SDS011;40151;43.606;1.472;2023-02-18T16:00:18;10.20;;;5.97;;
54235;SDS011;40151;43.606;1.472;2023-02-18T16:03:10;11.70;;;5.93;;
54235;SDS011;40151;43.606;1.472;2023-02-18T16:05:40;8.48;;;5.47;;
54235;SDS011;40151;43.606;1.472;2023-02-18T16:08:20;9.07;;;5.93;;
54235;SDS011;40151;43.606;1.472;2023-02-18T16:11:04;9.45;;;5.75;;
54235;SDS011;40151;43.606;1.472;2023-02-18T16:13:33;9.98;;;5.68;;
54235;SDS011;40151;43.606;1.472;2023-02-18T16:16:01;11.27;;;5.50;;
54235;SDS011;40151;43.606;1.472;2023-02-18T16:20:53;7.82;;;5.15;;
54235;SDS011;40151;43.606;1.472;2023-02-18T16:23:34;7.85;;;5.30;;
54235;SDS011;40151;43.606;1.472;2023-02-18T16:28:48;9.90;;;5.72;;
54235;SDS011;40151;43.606;1.472;2023-02-18T16:31:15;9.13;;;5.40;;
54235;SDS011;40151;43.606;1.472;2023-02-18T16:33:41;8.70;;;4.97;;
54235;SDS011;40151;43.606;1.472;2023-02-18T16:36:13;7.70;;;5.18;;
54235;SDS011;40151;43.606;1.472;2023-02-18T16:38:40;10.35;;;5.20;;
54235;SDS011;40151;43.606;1.472;2023-02-18T16:41:07;7.97;;;4.70;;
54235;SDS011;40151;43.606;1.472;2023-02-18T16:43:34;9.00;;;4.80;;
54235;SDS011;40151;43.606;1.472;2023-02-18T16:46:04;6.97;;;5.22;;
54235;SDS011;40151;43.606;1.472;2023-02-18T16:48:33;7.40;;;4.70;;
54235;SDS011;40151;43.606;1.472;2023-02-18T16:51:02;7.05;;;4.95;;
54235;SDS011;40151;43.606;1.472;2023-02-18T16:53:48;8.23;;;5.18;;
54235;SDS011;40151;43.606;1.472;2023-02-18T16:56:15;9.20;;;5.55;;
54235;SDS011;40151;43.606;1.472;2023-02-18T16:58:46;7.50;;;5.28;;
54235;SDS011;40151;43.606;1.472;2023-02-18T17:01:30;9.75;;;4.97;;
54235;SDS011;40151;43.606;1.472;2023-02-18T17:04:01;7.82;;;5.20;;
54235;SDS011;40151;43.606;1.472;2023-02-18T17:06:27;8.38;;;5.10;;
54235;SDS011;40151;43.606;1.472;2023-02-18T17:08:53;8.15;;;5.18;;
54235;SDS011;40151;43.606;1.472;2023-02-18T17:11:20;7.03;;;5.22;;
54235;SDS011;40151;43.606;1.472;2023-02-18T17:13:50;8.55;;;5.30;;
54235;SDS011;40151;43.606;1.472;2023-02-18T17:16:17;7.45;;;5.15;;
54235;SDS011;40151;43.606;1.472;2023-02-18T17:18:43;8.07;;;4.85;;
54235;SDS011;40151;43.606;1.472;2023-02-18T17:21:18;7.00;;;4.90;;
54235;SDS011;40151;43.606;1.472;2023-02-18T17:26:44;8.37;;;4.87;;